Avella, Pennsylvania
Current Conditions -  °F | °C
As of 2:53 AM on Friday 24 Oct 2014 (Local Time) from KHLG Reporting Station
Haze Haze  
Wind Chill: 38°   Ceiling: Unl
Heat Index: 41°   Visibility: 1.5mi
Dew Point: 40°   Wind: 5mph
Humidity: 96%   Direction: 270°W
Pressure: 30.09"   Gusts: NA
Location:  40.28°N, 80.46°W
Report Text: KHLG 240653Z AUTO 27004KT 1 1/2SM R03/5000VP6000FT BR CLR 05/04 A3009 RMK AO2 VIS 1/2V4 SLP195 T00500044
Loading
Personal Weather Stations






























Interactive Weather Map
Tropical Storm Tracking
New forecast layout! Learn more

10-Day Weather Forecast

Advertisements
Track Severe Weather on mobile